sensor_id;sensor_type;location;lat;lon;timestamp;temperature;humidity
48836;DHT22;62581;47.342;7.908;2022-08-11T00:00:36;22.00;72.40
48836;DHT22;62581;47.342;7.908;2022-08-11T00:03:05;22.00;71.50
48836;DHT22;62581;47.342;7.908;2022-08-11T00:05:42;21.90;71.80
48836;DHT22;62581;47.342;7.908;2022-08-11T00:08:11;21.90;72.30
48836;DHT22;62581;47.342;7.908;2022-08-11T00:10:51;21.90;72.30
48836;DHT22;62581;47.342;7.908;2022-08-11T00:13:19;21.90;72.50
48836;DHT22;62581;47.342;7.908;2022-08-11T00:15:48;21.80;72.30
48836;DHT22;62581;47.342;7.908;2022-08-11T00:18:16;21.80;72.20
48836;DHT22;62581;47.342;7.908;2022-08-11T00:20:44;21.80;72.00
48836;DHT22;62581;47.342;7.908;2022-08-11T00:23:13;21.80;72.00
48836;DHT22;62581;47.342;7.908;2022-08-11T00:25:42;21.70;72.60
48836;DHT22;62581;47.342;7.908;2022-08-11T00:28:24;21.70;72.70
48836;DHT22;62581;47.342;7.908;2022-08-11T00:30:53;21.60;72.90
48836;DHT22;62581;47.342;7.908;2022-08-11T00:33:23;21.60;72.70
48836;DHT22;62581;47.342;7.908;2022-08-11T00:35:55;21.50;72.90
48836;DHT22;62581;47.342;7.908;2022-08-11T00:38:25;21.50;73.00
48836;DHT22;62581;47.342;7.908;2022-08-11T00:41:03;21.50;73.20
48836;DHT22;62581;47.342;7.908;2022-08-11T00:43:46;21.50;73.60
48836;DHT22;62581;47.342;7.908;2022-08-11T00:46:26;21.40;73.90
48836;DHT22;62581;47.342;7.908;2022-08-11T00:49:10;21.30;74.00
48836;DHT22;62581;47.342;7.908;2022-08-11T00:51:52;21.30;73.50
48836;DHT22;62581;47.342;7.908;2022-08-11T00:54:38;21.30;73.90
48836;DHT22;62581;47.342;7.908;2022-08-11T00:57:25;21.30;74.10
48836;DHT22;62581;47.342;7.908;2022-08-11T01:00:14;21.20;75.00
48836;DHT22;62581;47.342;7.908;2022-08-11T01:02:59;21.10;74.20
48836;DHT22;62581;47.342;7.908;2022-08-11T01:05:58;21.10;74.50
48836;DHT22;62581;47.342;7.908;2022-08-11T01:09:11;21.10;74.60
48836;DHT22;62581;47.342;7.908;2022-08-11T01:15:10;21.00;74.50
48836;DHT22;62581;47.342;7.908;2022-08-11T01:21:05;20.90;77.30
48836;DHT22;62581;47.342;7.908;2022-08-11T01:27:14;20.80;80.40
48836;DHT22;62581;47.342;7.908;2022-08-11T01:39:26;20.40;82.50
48836;DHT22;62581;47.342;7.908;2022-08-11T01:42:34;20.30;81.50
48836;DHT22;62581;47.342;7.908;2022-08-11T01:45:31;20.30;80.60
48836;DHT22;62581;47.342;7.908;2022-08-11T01:48:07;20.20;81.00
48836;DHT22;62581;47.342;7.908;2022-08-11T01:53:53;20.10;81.20
48836;DHT22;62581;47.342;7.908;2022-08-11T01:56:41;20.10;81.00
48836;DHT22;62581;47.342;7.908;2022-08-11T01:59:17;20.10;81.10
48836;DHT22;62581;47.342;7.908;2022-08-11T02:04:50;20.00;83.00
48836;DHT22;62581;47.342;7.908;2022-08-11T02:07:29;20.00;82.80
48836;DHT22;62581;47.342;7.908;2022-08-11T02:10:14;19.90;84.20
48836;DHT22;62581;47.342;7.908;2022-08-11T02:13:06;19.90;84.30
48836;DHT22;62581;47.342;7.908;2022-08-11T02:15:42;19.80;84.30
48836;DHT22;62581;47.342;7.908;2022-08-11T02:18:18;19.80;84.90
48836;DHT22;62581;47.342;7.908;2022-08-11T02:20:50;19.70;84.60
48836;DHT22;62581;47.342;7.908;2022-08-11T02:23:42;19.70;84.50
48836;DHT22;62581;47.342;7.908;2022-08-11T02:26:19;19.70;84.30
48836;DHT22;62581;47.342;7.908;2022-08-11T02:29:00;19.70;84.40
48836;DHT22;62581;47.342;7.908;2022-08-11T02:31:39;19.60;83.80
48836;DHT22;62581;47.342;7.908;2022-08-11T02:34:34;19.60;83.20
48836;DHT22;62581;47.342;7.908;2022-08-11T02:37:13;19.50;82.50
48836;DHT22;62581;47.342;7.908;2022-08-11T02:39:54;19.60;82.30
48836;DHT22;62581;47.342;7.908;2022-08-11T02:42:31;19.50;82.20
48836;DHT22;62581;47.342;7.908;2022-08-11T02:45:18;19.50;82.50
48836;DHT22;62581;47.342;7.908;2022-08-11T02:48:08;19.50;82.60
48836;DHT22;62581;47.342;7.908;2022-08-11T02:51:08;19.50;82.80
48836;DHT22;62581;47.342;7.908;2022-08-11T02:53:48;19.40;82.80
48836;DHT22;62581;47.342;7.908;2022-08-11T02:56:26;19.40;83.50
48836;DHT22;62581;47.342;7.908;2022-08-11T02:59:00;19.40;84.60
48836;DHT22;62581;47.342;7.908;2022-08-11T03:01:50;19.30;85.60
48836;DHT22;62581;47.342;7.908;2022-08-11T03:04:21;19.30;85.70
48836;DHT22;62581;47.342;7.908;2022-08-11T03:06:57;19.30;85.70
48836;DHT22;62581;47.342;7.908;2022-08-11T03:09:39;19.30;85.60
48836;DHT22;62581;47.342;7.908;2022-08-11T03:12:10;19.20;85.10
48836;DHT22;62581;47.342;7.908;2022-08-11T03:15:02;19.20;85.10
48836;DHT22;62581;47.342;7.908;2022-08-11T03:17:59;19.10;85.10
48836;DHT22;62581;47.342;7.908;2022-08-11T03:20:35;19.10;84.60
48836;DHT22;62581;47.342;7.908;2022-08-11T03:23:10;19.10;85.10
48836;DHT22;62581;47.342;7.908;2022-08-11T03:25:46;19.00;86.60
48836;DHT22;62581;47.342;7.908;2022-08-11T03:28:26;19.10;87.40
48836;DHT22;62581;47.342;7.908;2022-08-11T03:31:06;19.00;87.70
48836;DHT22;62581;47.342;7.908;2022-08-11T03:33:40;19.00;87.70
48836;DHT22;62581;47.342;7.908;2022-08-11T03:39:31;18.90;88.10
48836;DHT22;62581;47.342;7.908;2022-08-11T03:42:15;18.90;87.90
48836;DHT22;62581;47.342;7.908;2022-08-11T03:45:00;18.80;88.00
48836;DHT22;62581;47.342;7.908;2022-08-11T03:47:38;18.80;88.20
48836;DHT22;62581;47.342;7.908;2022-08-11T03:50:21;18.80;88.10
48836;DHT22;62581;47.342;7.908;2022-08-11T03:53:01;18.80;89.00
48836;DHT22;62581;47.342;7.908;2022-08-11T03:55:46;18.70;88.80
48836;DHT22;62581;47.342;7.908;2022-08-11T04:04:19;18.70;89.40
48836;DHT22;62581;47.342;7.908;2022-08-11T04:07:22;18.60;88.80
48836;DHT22;62581;47.342;7.908;2022-08-11T04:10:19;18.60;88.60
48836;DHT22;62581;47.342;7.908;2022-08-11T04:13:12;18.60;88.80
48836;DHT22;62581;47.342;7.908;2022-08-11T04:16:06;18.50;89.00
48836;DHT22;62581;47.342;7.908;2022-08-11T04:22:22;18.50;90.10
48836;DHT22;62581;47.342;7.908;2022-08-11T04:34:11;18.50;89.50
48836;DHT22;62581;47.342;7.908;2022-08-11T04:37:17;18.50;89.50
48836;DHT22;62581;47.342;7.908;2022-08-11T04:49:37;18.50;88.70
48836;DHT22;62581;47.342;7.908;2022-08-11T04:53:07;18.50;88.80
48836;DHT22;62581;47.342;7.908;2022-08-11T04:56:07;18.50;88.80
48836;DHT22;62581;47.342;7.908;2022-08-11T05:02:47;18.50;88.70
48836;DHT22;62581;47.342;7.908;2022-08-11T05:05:35;18.60;88.90
48836;DHT22;62581;47.342;7.908;2022-08-11T05:08:40;18.60;88.60
48836;DHT22;62581;47.342;7.908;2022-08-11T05:14:29;18.70;88.20
48836;DHT22;62581;47.342;7.908;2022-08-11T05:17:22;18.80;88.30
48836;DHT22;62581;47.342;7.908;2022-08-11T05:20:10;18.80;87.90
48836;DHT22;62581;47.342;7.908;2022-08-11T05:22:58;18.80;87.80
48836;DHT22;62581;47.342;7.908;2022-08-11T05:25:47;18.90;87.50
48836;DHT22;62581;47.342;7.908;2022-08-11T05:28:41;18.90;87.30
48836;DHT22;62581;47.342;7.908;2022-08-11T05:31:34;19.00;87.40
48836;DHT22;62581;47.342;7.908;2022-08-11T05:34:22;19.10;87.30
48836;DHT22;62581;47.342;7.908;2022-08-11T05:37:10;19.20;86.90
48836;DHT22;62581;47.342;7.908;2022-08-11T05:39:44;19.20;86.20
48836;DHT22;62581;47.342;7.908;2022-08-11T05:42:30;19.30;86.30
48836;DHT22;62581;47.342;7.908;2022-08-11T05:45:18;19.40;87.50
48836;DHT22;62581;47.342;7.908;2022-08-11T05:48:03;19.40;86.20
48836;DHT22;62581;47.342;7.908;2022-08-11T05:50:52;19.50;84.50
48836;DHT22;62581;47.342;7.908;2022-08-11T05:53:49;19.60;84.00
48836;DHT22;62581;47.342;7.908;2022-08-11T05:56:49;19.70;83.70
48836;DHT22;62581;47.342;7.908;2022-08-11T05:59:19;19.70;83.50
48836;DHT22;62581;47.342;7.908;2022-08-11T06:01:49;19.80;83.30
48836;DHT22;62581;47.342;7.908;2022-08-11T06:04:19;19.80;83.20
48836;DHT22;62581;47.342;7.908;2022-08-11T06:06:49;19.80;83.20
48836;DHT22;62581;47.342;7.908;2022-08-11T06:09:22;19.90;83.40
48836;DHT22;62581;47.342;7.908;2022-08-11T06:11:50;20.00;83.00
48836;DHT22;62581;47.342;7.908;2022-08-11T06:14:18;20.10;82.90
48836;DHT22;62581;47.342;7.908;2022-08-11T06:16:47;20.20;82.50
48836;DHT22;62581;47.342;7.908;2022-08-11T06:19:19;20.30;82.50
48836;DHT22;62581;47.342;7.908;2022-08-11T06:21:48;20.40;83.90
48836;DHT22;62581;47.342;7.908;2022-08-11T06:24:18;20.50;83.30
48836;DHT22;62581;47.342;7.908;2022-08-11T06:26:50;20.50;82.80
48836;DHT22;62581;47.342;7.908;2022-08-11T06:29:18;20.60;83.00
48836;DHT22;62581;47.342;7.908;2022-08-11T06:31:51;20.60;83.90
48836;DHT22;62581;47.342;7.908;2022-08-11T06:34:34;20.70;83.50
48836;DHT22;62581;47.342;7.908;2022-08-11T06:37:14;20.70;82.60
48836;DHT22;62581;47.342;7.908;2022-08-11T06:39:47;20.80;81.10
48836;DHT22;62581;47.342;7.908;2022-08-11T06:42:31;20.80;80.60
48836;DHT22;62581;47.342;7.908;2022-08-11T06:45:04;20.90;80.40
48836;DHT22;62581;47.342;7.908;2022-08-11T06:47:33;21.00;80.10
48836;DHT22;62581;47.342;7.908;2022-08-11T06:50:05;21.10;80.40
48836;DHT22;62581;47.342;7.908;2022-08-11T06:52:52;21.20;79.70
48836;DHT22;62581;47.342;7.908;2022-08-11T06:55:23;21.20;79.40
48836;DHT22;62581;47.342;7.908;2022-08-11T06:58:05;21.30;79.40
48836;DHT22;62581;47.342;7.908;2022-08-11T07:00:56;21.40;79.10
48836;DHT22;62581;47.342;7.908;2022-08-11T07:03:27;21.40;78.50
48836;DHT22;62581;47.342;7.908;2022-08-11T07:06:01;21.50;78.40
48836;DHT22;62581;47.342;7.908;2022-08-11T07:12:13;21.70;78.10
48836;DHT22;62581;47.342;7.908;2022-08-11T07:15:05;21.80;78.50
48836;DHT22;62581;47.342;7.908;2022-08-11T07:17:53;21.80;77.60
48836;DHT22;62581;47.342;7.908;2022-08-11T07:20:39;21.90;77.90
48836;DHT22;62581;47.342;7.908;2022-08-11T07:23:25;22.00;77.00
48836;DHT22;62581;47.342;7.908;2022-08-11T07:26:10;22.00;77.10
48836;DHT22;62581;47.342;7.908;2022-08-11T07:28:56;22.10;76.90
48836;DHT22;62581;47.342;7.908;2022-08-11T07:31:33;22.20;77.00
48836;DHT22;62581;47.342;7.908;2022-08-11T07:34:12;22.30;76.90
48836;DHT22;62581;47.342;7.908;2022-08-11T07:36:49;22.40;76.70
48836;DHT22;62581;47.342;7.908;2022-08-11T07:39:21;22.40;75.70
48836;DHT22;62581;47.342;7.908;2022-08-11T07:41:50;22.50;75.60
48836;DHT22;62581;47.342;7.908;2022-08-11T07:44:18;22.50;75.50
48836;DHT22;62581;47.342;7.908;2022-08-11T07:46:47;22.60;74.80
48836;DHT22;62581;47.342;7.908;2022-08-11T07:49:34;22.60;74.70
48836;DHT22;62581;47.342;7.908;2022-08-11T07:52:20;22.70;75.00
48836;DHT22;62581;47.342;7.908;2022-08-11T07:55:02;22.70;75.60
48836;DHT22;62581;47.342;7.908;2022-08-11T07:57:31;22.70;74.90
48836;DHT22;62581;47.342;7.908;2022-08-11T08:00:16;22.80;75.00
48836;DHT22;62581;47.342;7.908;2022-08-11T08:03:01;22.90;74.90
48836;DHT22;62581;47.342;7.908;2022-08-11T08:05:49;22.90;74.90
48836;DHT22;62581;47.342;7.908;2022-08-11T08:08:34;23.00;74.40
48836;DHT22;62581;47.342;7.908;2022-08-11T08:11:21;23.00;74.70
48836;DHT22;62581;47.342;7.908;2022-08-11T08:14:07;23.10;74.50
48836;DHT22;62581;47.342;7.908;2022-08-11T08:16:52;23.20;74.60
48836;DHT22;62581;47.342;7.908;2022-08-11T08:19:38;23.30;75.00
48836;DHT22;62581;47.342;7.908;2022-08-11T08:22:08;23.30;74.20
48836;DHT22;62581;47.342;7.908;2022-08-11T08:24:37;23.40;74.00
48836;DHT22;62581;47.342;7.908;2022-08-11T08:27:08;23.40;73.10
48836;DHT22;62581;47.342;7.908;2022-08-11T08:29:39;23.50;73.70
48836;DHT22;62581;47.342;7.908;2022-08-11T08:32:25;23.50;73.70
48836;DHT22;62581;47.342;7.908;2022-08-11T08:34:54;23.50;73.80
48836;DHT22;62581;47.342;7.908;2022-08-11T08:37:24;23.60;73.70
48836;DHT22;62581;47.342;7.908;2022-08-11T08:39:52;23.60;73.70
48836;DHT22;62581;47.342;7.908;2022-08-11T08:42:25;23.60;74.10
48836;DHT22;62581;47.342;7.908;2022-08-11T08:44:56;23.70;74.60
48836;DHT22;62581;47.342;7.908;2022-08-11T08:47:25;23.70;74.00
48836;DHT22;62581;47.342;7.908;2022-08-11T08:50:00;23.80;73.90
48836;DHT22;62581;47.342;7.908;2022-08-11T08:52:33;23.80;73.70
48836;DHT22;62581;47.342;7.908;2022-08-11T08:55:03;23.90;73.60
48836;DHT22;62581;47.342;7.908;2022-08-11T08:57:35;23.90;72.10
48836;DHT22;62581;47.342;7.908;2022-08-11T09:00:04;23.90;72.80
48836;DHT22;62581;47.342;7.908;2022-08-11T09:02:32;23.90;72.60
48836;DHT22;62581;47.342;7.908;2022-08-11T09:05:00;24.00;72.30
48836;DHT22;62581;47.342;7.908;2022-08-11T09:07:28;24.10;72.50
48836;DHT22;62581;47.342;7.908;2022-08-11T09:09:57;24.10;72.40
48836;DHT22;62581;47.342;7.908;2022-08-11T09:12:27;24.20;72.50
48836;DHT22;62581;47.342;7.908;2022-08-11T09:14:56;24.30;72.50
48836;DHT22;62581;47.342;7.908;2022-08-11T09:17:30;24.40;71.80
48836;DHT22;62581;47.342;7.908;2022-08-11T09:20:00;24.40;71.70
48836;DHT22;62581;47.342;7.908;2022-08-11T09:22:28;24.40;71.70
48836;DHT22;62581;47.342;7.908;2022-08-11T09:25:14;24.50;71.70
48836;DHT22;62581;47.342;7.908;2022-08-11T09:27:59;24.50;72.30
48836;DHT22;62581;47.342;7.908;2022-08-11T09:30:29;24.60;72.00
48836;DHT22;62581;47.342;7.908;2022-08-11T09:32:58;24.70;72.10
48836;DHT22;62581;47.342;7.908;2022-08-11T09:35:27;24.80;71.60
48836;DHT22;62581;47.342;7.908;2022-08-11T09:37:55;24.90;70.70
48836;DHT22;62581;47.342;7.908;2022-08-11T09:40:42;25.00;70.70
48836;DHT22;62581;47.342;7.908;2022-08-11T09:43:10;25.10;71.00
48836;DHT22;62581;47.342;7.908;2022-08-11T09:45:58;25.10;70.40
48836;DHT22;62581;47.342;7.908;2022-08-11T09:48:27;25.10;70.20
48836;DHT22;62581;47.342;7.908;2022-08-11T09:50:57;25.20;70.50
48836;DHT22;62581;47.342;7.908;2022-08-11T09:53:27;25.30;70.50
48836;DHT22;62581;47.342;7.908;2022-08-11T09:55:56;25.30;70.00
48836;DHT22;62581;47.342;7.908;2022-08-11T09:58:23;25.40;70.50
48836;DHT22;62581;47.342;7.908;2022-08-11T10:00:50;25.40;70.10
48836;DHT22;62581;47.342;7.908;2022-08-11T10:03:21;25.50;70.10
48836;DHT22;62581;47.342;7.908;2022-08-11T10:05:55;25.60;69.80
48836;DHT22;62581;47.342;7.908;2022-08-11T10:08:42;25.70;69.40
48836;DHT22;62581;47.342;7.908;2022-08-11T10:11:12;25.70;69.70
48836;DHT22;62581;47.342;7.908;2022-08-11T10:13:42;25.80;70.00
48836;DHT22;62581;47.342;7.908;2022-08-11T10:16:27;25.80;69.90
48836;DHT22;62581;47.342;7.908;2022-08-11T10:18:57;25.90;70.20
48836;DHT22;62581;47.342;7.908;2022-08-11T10:21:29;25.80;69.00
48836;DHT22;62581;47.342;7.908;2022-08-11T10:24:00;25.90;69.50
48836;DHT22;62581;47.342;7.908;2022-08-11T10:26:47;26.00;69.60
48836;DHT22;62581;47.342;7.908;2022-08-11T10:29:24;26.10;69.70
48836;DHT22;62581;47.342;7.908;2022-08-11T10:32:09;26.20;69.20
48836;DHT22;62581;47.342;7.908;2022-08-11T10:34:56;26.30;68.50
48836;DHT22;62581;47.342;7.908;2022-08-11T10:37:25;26.40;68.80
48836;DHT22;62581;47.342;7.908;2022-08-11T10:39:55;26.50;69.20
48836;DHT22;62581;47.342;7.908;2022-08-11T10:42:23;26.60;68.20
48836;DHT22;62581;47.342;7.908;2022-08-11T10:45:08;26.60;68.30
48836;DHT22;62581;47.342;7.908;2022-08-11T10:47:55;26.70;67.80
48836;DHT22;62581;47.342;7.908;2022-08-11T10:50:23;26.80;67.80
48836;DHT22;62581;47.342;7.908;2022-08-11T10:53:09;26.90;67.60
48836;DHT22;62581;47.342;7.908;2022-08-11T10:55:55;27.00;67.20
48836;DHT22;62581;47.342;7.908;2022-08-11T10:58:40;27.10;66.90
48836;DHT22;62581;47.342;7.908;2022-08-11T11:01:12;27.10;66.80
48836;DHT22;62581;47.342;7.908;2022-08-11T11:03:41;27.20;66.70
48836;DHT22;62581;47.342;7.908;2022-08-11T11:06:22;27.30;66.60
48836;DHT22;62581;47.342;7.908;2022-08-11T11:08:56;27.40;66.30
48836;DHT22;62581;47.342;7.908;2022-08-11T11:11:26;27.50;67.00
48836;DHT22;62581;47.342;7.908;2022-08-11T11:14:14;27.60;66.50
48836;DHT22;62581;47.342;7.908;2022-08-11T11:17:00;27.60;65.60
48836;DHT22;62581;47.342;7.908;2022-08-11T11:19:46;27.60;65.50
48836;DHT22;62581;47.342;7.908;2022-08-11T11:22:17;27.70;65.40
48836;DHT22;62581;47.342;7.908;2022-08-11T11:25:16;27.70;65.70
48836;DHT22;62581;47.342;7.908;2022-08-11T11:27:55;27.80;65.60
48836;DHT22;62581;47.342;7.908;2022-08-11T11:30:31;27.90;64.80
48836;DHT22;62581;47.342;7.908;2022-08-11T11:33:06;28.00;64.50
48836;DHT22;62581;47.342;7.908;2022-08-11T11:35:40;28.10;64.10
48836;DHT22;62581;47.342;7.908;2022-08-11T11:38:14;28.10;64.40
48836;DHT22;62581;47.342;7.908;2022-08-11T11:40:43;28.20;63.60
48836;DHT22;62581;47.342;7.908;2022-08-11T11:43:32;28.30;62.80
48836;DHT22;62581;47.342;7.908;2022-08-11T11:46:01;28.30;63.00
48836;DHT22;62581;47.342;7.908;2022-08-11T11:48:30;28.40;63.10
48836;DHT22;62581;47.342;7.908;2022-08-11T11:50:58;28.40;63.20
48836;DHT22;62581;47.342;7.908;2022-08-11T11:53:27;28.40;61.70
48836;DHT22;62581;47.342;7.908;2022-08-11T11:55:55;28.40;61.80
48836;DHT22;62581;47.342;7.908;2022-08-11T11:58:23;28.50;61.70
48836;DHT22;62581;47.342;7.908;2022-08-11T12:01:08;28.60;61.70
48836;DHT22;62581;47.342;7.908;2022-08-11T12:03:43;28.60;62.20
48836;DHT22;62581;47.342;7.908;2022-08-11T12:06:12;28.70;61.60
48836;DHT22;62581;47.342;7.908;2022-08-11T12:08:42;28.70;61.70
48836;DHT22;62581;47.342;7.908;2022-08-11T12:11:10;28.80;60.60
48836;DHT22;62581;47.342;7.908;2022-08-11T12:13:58;28.90;61.10
48836;DHT22;62581;47.342;7.908;2022-08-11T12:16:26;28.90;60.80
48836;DHT22;62581;47.342;7.908;2022-08-11T12:18:57;28.90;60.70
48836;DHT22;62581;47.342;7.908;2022-08-11T12:21:25;28.90;61.00
48836;DHT22;62581;47.342;7.908;2022-08-11T12:23:55;29.00;61.50
48836;DHT22;62581;47.342;7.908;2022-08-11T12:26:41;29.00;61.10
48836;DHT22;62581;47.342;7.908;2022-08-11T12:29:27;29.00;61.20
48836;DHT22;62581;47.342;7.908;2022-08-11T12:31:54;29.00;60.60
48836;DHT22;62581;47.342;7.908;2022-08-11T12:34:26;29.10;60.90
48836;DHT22;62581;47.342;7.908;2022-08-11T12:36:56;29.30;61.10
48836;DHT22;62581;47.342;7.908;2022-08-11T12:39:27;29.60;60.40
48836;DHT22;62581;47.342;7.908;2022-08-11T12:42:23;30.00;59.70
48836;DHT22;62581;47.342;7.908;2022-08-11T12:45:10;30.60;58.70
48836;DHT22;62581;47.342;7.908;2022-08-11T12:48:05;31.40;57.40
48836;DHT22;62581;47.342;7.908;2022-08-11T12:50:54;32.30;56.20
48836;DHT22;62581;47.342;7.908;2022-08-11T12:53:44;33.30;54.80
48836;DHT22;62581;47.342;7.908;2022-08-11T12:56:13;34.10;53.30
48836;DHT22;62581;47.342;7.908;2022-08-11T12:59:00;34.70;51.90
48836;DHT22;62581;47.342;7.908;2022-08-11T13:01:45;35.30;51.10
48836;DHT22;62581;47.342;7.908;2022-08-11T13:04:30;36.10;50.10
48836;DHT22;62581;47.342;7.908;2022-08-11T13:07:15;36.80;48.80
48836;DHT22;62581;47.342;7.908;2022-08-11T13:09:43;37.50;47.80
48836;DHT22;62581;47.342;7.908;2022-08-11T13:12:12;38.10;46.90
48836;DHT22;62581;47.342;7.908;2022-08-11T13:15:07;38.70;46.40
48836;DHT22;62581;47.342;7.908;2022-08-11T13:17:36;39.50;45.60
48836;DHT22;62581;47.342;7.908;2022-08-11T13:20:05;40.10;44.60
48836;DHT22;62581;47.342;7.908;2022-08-11T13:22:34;40.70;44.10
48836;DHT22;62581;47.342;7.908;2022-08-11T13:25:03;41.20;42.90
48836;DHT22;62581;47.342;7.908;2022-08-11T13:27:32;41.80;42.70
48836;DHT22;62581;47.342;7.908;2022-08-11T13:29:59;42.30;42.10
48836;DHT22;62581;47.342;7.908;2022-08-11T13:32:44;42.60;41.50
48836;DHT22;62581;47.342;7.908;2022-08-11T13:35:12;43.10;41.10
48836;DHT22;62581;47.342;7.908;2022-08-11T13:37:42;43.50;40.60
48836;DHT22;62581;47.342;7.908;2022-08-11T13:40:11;44.00;40.30
48836;DHT22;62581;47.342;7.908;2022-08-11T13:42:43;44.50;39.70
48836;DHT22;62581;47.342;7.908;2022-08-11T13:45:10;45.00;39.10
48836;DHT22;62581;47.342;7.908;2022-08-11T13:47:38;45.40;38.80
48836;DHT22;62581;47.342;7.908;2022-08-11T13:50:06;45.90;38.20
48836;DHT22;62581;47.342;7.908;2022-08-11T13:52:35;46.40;37.60
48836;DHT22;62581;47.342;7.908;2022-08-11T13:55:07;46.70;37.40
48836;DHT22;62581;47.342;7.908;2022-08-11T13:57:34;47.20;37.00
48836;DHT22;62581;47.342;7.908;2022-08-11T14:00:06;47.70;36.40
48836;DHT22;62581;47.342;7.908;2022-08-11T14:02:40;48.10;36.20
48836;DHT22;62581;47.342;7.908;2022-08-11T14:05:12;48.30;36.20
48836;DHT22;62581;47.342;7.908;2022-08-11T14:07:47;48.70;35.60
48836;DHT22;62581;47.342;7.908;2022-08-11T14:10:16;49.10;35.30
48836;DHT22;62581;47.342;7.908;2022-08-11T14:12:49;49.60;35.00
48836;DHT22;62581;47.342;7.908;2022-08-11T14:15:41;50.10;34.70
48836;DHT22;62581;47.342;7.908;2022-08-11T14:18:13;50.60;34.40
48836;DHT22;62581;47.342;7.908;2022-08-11T14:20:44;50.80;34.20
48836;DHT22;62581;47.342;7.908;2022-08-11T14:23:33;51.00;33.80
48836;DHT22;62581;47.342;7.908;2022-08-11T14:26:02;51.20;33.70
48836;DHT22;62581;47.342;7.908;2022-08-11T14:28:48;51.60;33.30
48836;DHT22;62581;47.342;7.908;2022-08-11T14:31:19;52.30;33.00
48836;DHT22;62581;47.342;7.908;2022-08-11T14:33:47;52.70;32.70
48836;DHT22;62581;47.342;7.908;2022-08-11T14:36:15;52.80;32.40
48836;DHT22;62581;47.342;7.908;2022-08-11T14:38:42;53.20;32.20
48836;DHT22;62581;47.342;7.908;2022-08-11T14:41:10;53.30;32.00
48836;DHT22;62581;47.342;7.908;2022-08-11T14:43:55;53.60;31.90
48836;DHT22;62581;47.342;7.908;2022-08-11T14:46:42;53.80;31.70
48836;DHT22;62581;47.342;7.908;2022-08-11T14:49:27;54.10;31.50
48836;DHT22;62581;47.342;7.908;2022-08-11T14:51:56;54.40;31.20
48836;DHT22;62581;47.342;7.908;2022-08-11T14:54:25;54.40;31.30
48836;DHT22;62581;47.342;7.908;2022-08-11T14:57:11;54.80;31.20
48836;DHT22;62581;47.342;7.908;2022-08-11T14:59:39;55.10;30.90
48836;DHT22;62581;47.342;7.908;2022-08-11T15:02:08;55.10;30.60
48836;DHT22;62581;47.342;7.908;2022-08-11T15:04:54;55.30;30.60
48836;DHT22;62581;47.342;7.908;2022-08-11T15:07:21;55.50;30.50
48836;DHT22;62581;47.342;7.908;2022-08-11T15:09:55;55.30;30.60
48836;DHT22;62581;47.342;7.908;2022-08-11T15:12:23;55.30;30.40
48836;DHT22;62581;47.342;7.908;2022-08-11T15:14:50;55.50;30.50
48836;DHT22;62581;47.342;7.908;2022-08-11T15:17:38;55.70;30.30
48836;DHT22;62581;47.342;7.908;2022-08-11T15:20:09;55.40;30.30
48836;DHT22;62581;47.342;7.908;2022-08-11T15:22:54;55.30;30.30
48836;DHT22;62581;47.342;7.908;2022-08-11T15:25:41;55.40;30.70
48836;DHT22;62581;47.342;7.908;2022-08-11T15:28:09;55.60;30.30
48836;DHT22;62581;47.342;7.908;2022-08-11T15:30:56;55.70;30.30
48836;DHT22;62581;47.342;7.908;2022-08-11T15:33:43;55.40;30.30
48836;DHT22;62581;47.342;7.908;2022-08-11T15:36:29;55.20;30.60
48836;DHT22;62581;47.342;7.908;2022-08-11T15:39:18;55.30;30.70
48836;DHT22;62581;47.342;7.908;2022-08-11T15:41:56;55.40;30.60
48836;DHT22;62581;47.342;7.908;2022-08-11T15:44:42;55.20;30.40
48836;DHT22;62581;47.342;7.908;2022-08-11T15:47:35;55.30;30.30
48836;DHT22;62581;47.342;7.908;2022-08-11T15:50:06;55.20;30.60
48836;DHT22;62581;47.342;7.908;2022-08-11T15:52:42;55.10;30.50
48836;DHT22;62581;47.342;7.908;2022-08-11T15:55:11;55.30;30.60
48836;DHT22;62581;47.342;7.908;2022-08-11T15:57:40;55.50;30.30
48836;DHT22;62581;47.342;7.908;2022-08-11T16:00:25;55.50;30.20
48836;DHT22;62581;47.342;7.908;2022-08-11T16:03:11;55.50;30.70
48836;DHT22;62581;47.342;7.908;2022-08-11T16:05:58;54.80;30.30
48836;DHT22;62581;47.342;7.908;2022-08-11T16:08:25;54.40;30.70
48836;DHT22;62581;47.342;7.908;2022-08-11T16:10:54;54.60;30.70
48836;DHT22;62581;47.342;7.908;2022-08-11T16:13:23;54.70;30.60
48836;DHT22;62581;47.342;7.908;2022-08-11T16:16:09;54.80;30.70
48836;DHT22;62581;47.342;7.908;2022-08-11T16:18:42;54.90;30.40
48836;DHT22;62581;47.342;7.908;2022-08-11T16:21:16;54.80;30.50
48836;DHT22;62581;47.342;7.908;2022-08-11T16:23:45;54.80;30.50
48836;DHT22;62581;47.342;7.908;2022-08-11T16:26:17;54.80;30.70
48836;DHT22;62581;47.342;7.908;2022-08-11T16:28:45;54.80;30.50
48836;DHT22;62581;47.342;7.908;2022-08-11T16:31:14;54.60;30.90
48836;DHT22;62581;47.342;7.908;2022-08-11T16:33:41;54.60;30.70
48836;DHT22;62581;47.342;7.908;2022-08-11T16:36:10;54.70;30.80
48836;DHT22;62581;47.342;7.908;2022-08-11T16:38:57;54.70;30.80
48836;DHT22;62581;47.342;7.908;2022-08-11T16:41:28;54.70;30.80
48836;DHT22;62581;47.342;7.908;2022-08-11T16:44:13;54.70;30.80
48836;DHT22;62581;47.342;7.908;2022-08-11T16:46:59;54.50;30.80
48836;DHT22;62581;47.342;7.908;2022-08-11T16:49:30;54.20;31.00
48836;DHT22;62581;47.342;7.908;2022-08-11T16:51:58;54.00;31.00
48836;DHT22;62581;47.342;7.908;2022-08-11T16:54:31;53.70;31.30
48836;DHT22;62581;47.342;7.908;2022-08-11T16:57:01;53.70;31.40
48836;DHT22;62581;47.342;7.908;2022-08-11T16:59:50;53.50;31.50
48836;DHT22;62581;47.342;7.908;2022-08-11T17:02:18;53.20;31.60
48836;DHT22;62581;47.342;7.908;2022-08-11T17:05:08;52.90;32.00
48836;DHT22;62581;47.342;7.908;2022-08-11T17:07:55;52.70;32.00
48836;DHT22;62581;47.342;7.908;2022-08-11T17:10:45;52.60;32.00
48836;DHT22;62581;47.342;7.908;2022-08-11T17:13:35;52.60;32.20
48836;DHT22;62581;47.342;7.908;2022-08-11T17:16:04;52.20;32.20
48836;DHT22;62581;47.342;7.908;2022-08-11T17:18:36;52.20;32.20
48836;DHT22;62581;47.342;7.908;2022-08-11T17:21:11;52.00;32.40
48836;DHT22;62581;47.342;7.908;2022-08-11T17:23:42;51.80;32.50
48836;DHT22;62581;47.342;7.908;2022-08-11T17:26:14;51.50;32.50
48836;DHT22;62581;47.342;7.908;2022-08-11T17:28:42;50.80;32.90
48836;DHT22;62581;47.342;7.908;2022-08-11T17:31:12;49.60;34.00
48836;DHT22;62581;47.342;7.908;2022-08-11T17:33:56;48.60;34.50
48836;DHT22;62581;47.342;7.908;2022-08-11T17:36:42;48.20;35.10
48836;DHT22;62581;47.342;7.908;2022-08-11T17:39:10;47.80;35.20
48836;DHT22;62581;47.342;7.908;2022-08-11T17:41:39;47.50;35.40
48836;DHT22;62581;47.342;7.908;2022-08-11T17:44:25;46.70;35.80